Map

Track Data

SID SEASON NUMBER BASIN SUBBASIN NAME ISO_TIME NATURE LAT LON WMO_WIND WMO_PRES WMO_AGENCY TRACK_TYPE DIST2LAND LANDFALL IFLAG USA_AGENCY USA_ATCF_ID USA_LAT USA_LON USA_RECORD USA_STATUS USA_WIND USA_PRES USA_SSHS USA_R34_NE USA_R34_SE USA_R34_SW USA_R34_NW USA_R50_NE USA_R50_SE USA_R50_SW USA_R50_NW USA_R64_NE USA_R64_SE USA_R64_SW USA_R64_NW USA_POCI USA_ROCI USA_RMW USA_EYE TOKYO_LAT TOKYO_LON TOKYO_GRADE TOKYO_WIND TOKYO_PRES TOKYO_R50_DIR TOKYO_R50_LONG TOKYO_R50_SHORT TOKYO_R30_DIR TOKYO_R30_LONG TOKYO_R30_SHORT TOKYO_LAND CMA_LAT CMA_LON CMA_CAT CMA_WIND CMA_PRES HKO_LAT HKO_LON HKO_CAT HKO_WIND HKO_PRES NEWDELHI_LAT NEWDELHI_LON NEWDELHI_GRADE NEWDELHI_WIND NEWDELHI_PRES NEWDELHI_CI NEWDELHI_DP NEWDELHI_POCI REUNION_LAT REUNION_LON REUNION_TYPE REUNION_WIND REUNION_PRES REUNION_TNUM REUNION_CI REUNION_RMW REUNION_R34_NE REUNION_R34_SE REUNION_R34_SW REUNION_R34_NW REUNION_R50_NE REUNION_R50_SE REUNION_R50_SW REUNION_R50_NW REUNION_R64_NE REUNION_R64_SE REUNION_R64_SW REUNION_R64_NW BOM_LAT BOM_LON BOM_TYPE BOM_WIND BOM_PRES BOM_TNUM BOM_CI BOM_RMW BOM_R34_NE BOM_R34_SE BOM_R34_SW BOM_R34_NW BOM_R50_NE BOM_R50_SE BOM_R50_SW BOM_R50_NW BOM_R64_NE BOM_R64_SE BOM_R64_SW BOM_R64_NW BOM_ROCI BOM_POCI BOM_EYE BOM_POS_METHOD BOM_PRES_METHOD NADI_LAT NADI_LON NADI_CAT NADI_WIND NADI_PRES WELLINGTON_LAT WELLINGTON_LON WELLINGTON_WIND WELLINGTON_PRES DS824_LAT DS824_LON DS824_STAGE DS824_WIND DS824_PRES TD9636_LAT TD9636_LON TD9636_STAGE TD9636_WIND TD9636_PRES TD9635_LAT TD9635_LON TD9635_WIND TD9635_PRES TD9635_ROCI NEUMANN_LAT NEUMANN_LON NEUMANN_CLASS NEUMANN_WIND NEUMANN_PRES MLC_LAT MLC_LON MLC_CLASS MLC_WIND MLC_PRES USA_GUST BOM_GUST BOM_GUST_PER REUNION_GUST REUNION_GUST_PER USA_SEAHGT USA_SEARAD_NE USA_SEARAD_SE USA_SEARAD_SW USA_SEARAD_NW STORM_SPEED STORM_DIR
1957053S11179 1957 17 SP MM NOT_NAMED 1957-02-21 12:00:00 TS -10.9000 178.800 main 603 590 O________OO___ jtwc_sh SH221957 -10.9000 178.800 -1 -10.9000 178.800 TC -10.9000 178.800 1 3 124
1957053S11179 1957 17 SP MM NOT_NAMED 1957-02-21 15:00:00 TS -10.9975 178.945 main 590 576 P________PP___ SH221957 -10.9900 178.955 -1 -10.9900 178.955 TC -11.0125 178.925 1 4 127
1957053S11179 1957 17 SP MM NOT_NAMED 1957-02-21 18:00:00 TS -11.1100 179.087 main 576 563 O________OP___ jtwc_sh SH221957 -11.1000 179.100 -1 -11.1000 179.100 TC -11.1299 179.060 1 4 132
1957053S11179 1957 17 SP MM NOT_NAMED 1957-02-21 21:00:00 TS -11.2475 179.228 main 563 539 P________PP___ SH221957 -11.2425 179.235 -1 -11.2425 179.235 TC -11.2574 179.215 1 4 133
1957053S11179 1957 17 SP MM NOT_NAMED 1957-02-22 00:00:00 TS -11.4000 179.400 main 539 526 O________OO___ jtwc_sh SH221957 -11.4000 179.400 -1 -11.4000 179.400 TC -11.4000 179.400 1 5 128
1957053S11179 1957 17 SP MM NOT_NAMED 1957-02-22 03:00:00 TS -11.5531 179.635 main 515 503 P________PP___ SH221957 -11.5500 179.642 -1 -11.5500 179.642 TC -11.5592 179.620 1 6 123
1957053S11179 1957 17 SP MM NOT_NAMED 1957-02-22 06:00:00 TS -11.7075 179.886 main 503 481 O________OP___ jtwc_sh SH221957 -11.7000 179.900 -1 -11.7000 179.900 TC -11.7226 179.857 1 6 124
1957053S11179 1957 17 SP MM NOT_NAMED 1957-02-22 09:00:00 TS -11.8683 180.107 main 481 471 P________PP___ SH221957 -11.8650 -179.885 -1 -11.8650 -179.885 TC -11.8748 -179.909 1 5 126
1957053S11179 1957 17 SP MM NOT_NAMED 1957-02-22 12:00:00 TS -12.0000 180.300 main 472 462 O________OO___ jtwc_sh SH221957 -12.0000 -179.700 -1 -12.0000 180.300 TC -12.0000 -179.700 1 4 119
1957053S11179 1957 17 SP MM NOT_NAMED 1957-02-22 15:00:00 TS -12.0641 180.463 main 463 463 P________PP___ SH221957 -12.0650 -179.535 -1 -12.0650 -179.535 TC -12.0624 -179.542 1 3 109
1957053S11179 1957 17 SP MM NOT_NAMED 1957-02-22 18:00:00 TS -12.1000 180.596 main 465 465 O________OP___ jtwc_sh SH221957 -12.1000 -179.400 -1 -12.1000 180.600 TC -12.0999 -179.412 1 2 107
1957053S11179 1957 17 SP MM NOT_NAMED 1957-02-22 21:00:00 TS -12.1358 180.705 main 467 456 P________PP___ SH221957 -12.1350 -179.292 -1 -12.1350 -179.292 TC -12.1374 -179.301 1 2 117
1957053S11179 1957 17 SP MM NOT_NAMED 1957-02-23 00:00:00 TS -12.2000 180.800 main 458 447 O________OO___ jtwc_sh SH221957 -12.2000 -179.200 -1 -12.2000 180.800 TC -12.2000 -179.200 1 3 136
1957053S11179 1957 17 SP MM NOT_NAMED 1957-02-23 03:00:00 TS -12.3317 180.898 main 449 430 P________PP___ SH221957 -12.3350 -179.100 -1 -12.3350 -179.100 TC -12.3253 -179.105 1 4 147
1957053S11179 1957 17 SP MM NOT_NAMED 1957-02-23 06:00:00 TS -12.4925 180.995 main 430 420 O________OP___ jtwc_sh SH221957 -12.5000 -179.000 -1 -12.5000 181.000 TC -12.4774 -179.015 1 4 151
1957053S11179 1957 17 SP MM NOT_NAMED 1957-02-23 09:00:00 TS -12.6519 181.084 main 412 405 P________PP___ SH221957 -12.6575 -178.915 -1 -12.6575 -178.915 TC -12.6409 -178.917 1 4 147
1957053S11179 1957 17 SP MM NOT_NAMED 1957-02-23 12:00:00 TS -12.8000 181.200 main 405 398 O________OO___ jtwc_sh SH221957 -12.8000 -178.800 -1 -12.8000 181.200 TC -12.8000 -178.800 1 4 131
1957053S11179 1957 17 SP MM NOT_NAMED 1957-02-23 15:00:00 TS -12.9094 181.385 main 403 397 P________PP___ SH221957 -12.9000 -178.607 -1 -12.9000 -178.607 TC -12.9282 -178.630 1 4 120
1957053S11179 1957 17 SP MM NOT_NAMED 1957-02-23 18:00:00 TS -13.0167 181.586 main 402 392 O________OP___ jtwc_sh SH221957 -13.0000 -178.400 -1 -13.0000 181.600 TC -13.0501 -178.443 1 4 123
1957053S11179 1957 17 SP MM NOT_NAMED 1957-02-23 21:00:00 TS -13.1523 181.762 main 393 389 P________PP___ SH221957 -13.1425 -178.228 -1 -13.1425 -178.228 TC -13.1720 -178.258 1 4 133
1957053S11179 1957 17 SP MM NOT_NAMED 1957-02-24 00:00:00 TS -13.3000 181.900 main 389 380 O________OO___ jtwc_sh SH221957 -13.3000 -178.100 -1 -13.3000 181.900 TC -13.3000 -178.100 1 4 145
1957053S11179 1957 17 SP MM NOT_NAMED 1957-02-24 03:00:00 TS -13.4503 181.973 main 377 368 P________PP___ SH221957 -13.4500 -178.042 -1 -13.4500 -178.042 TC -13.4509 -177.996 1 3 158
1957053S11179 1957 17 SP MM NOT_NAMED 1957-02-24 06:00:00 TS -13.6025 182.027 main 368 357 O________OP___ jtwc_sh SH221957 -13.6000 -178.000 -1 -13.6000 182.000 TC -13.6074 -177.920 1 3 157
1957053S11179 1957 17 SP MM NOT_NAMED 1957-02-24 09:00:00 TS -13.7584 182.109 main 357 356 P________PP___ SH221957 -13.7575 -177.908 -1 -13.7575 -177.908 TC -13.7603 -177.859 1 3 150
1957053S11179 1957 17 SP MM NOT_NAMED 1957-02-24 12:00:00 TS -13.9000 182.200 main 356 356 O________OO___ jtwc_sh SH221957 -13.9000 -177.800 -1 -13.9000 182.200 TC -13.9000 -177.800 1 3 138
1957053S11179 1957 17 SP MM NOT_NAMED 1957-02-24 15:00:00 TS -13.9800 182.317 main 356 356 P________PP___ SH221957 -14.0075 -177.693 -1 -14.0075 -177.693 TC -13.9250 -177.665 1 2 136
1957053S11179 1957 17 SP MM NOT_NAMED 1957-02-24 18:00:00 TS -14.0400 182.336 main 356 341 O________OP___ jtwc_sh SH221957 -14.1000 -177.600 -1 -14.1000 182.400 TC -13.9499 -177.539 1 2 194
1957053S11179 1957 17 SP MM NOT_NAMED 1957-02-24 21:00:00 TS -14.2035 182.259 main 341 303 P________PP___ SH221957 -14.1250 -177.498 -1 -14.1250 -177.498 TC -14.0499 -177.468 1 5 208
1957053S11179 1957 17 SP MM NOT_NAMED 1957-02-25 00:00:00 TS -14.5179 182.076 main 303 243 O________OO___ jtwc_sh SH221957 -14.3000 -177.500 -1 -14.3000 182.500 TC -14.3000 -177.500 1 9 210
1957053S11179 1957 17 SP MM NOT_NAMED 1957-02-25 03:00:00 TS -14.9960 181.790 main 243 188 P________PP___ SH221957 -14.8100 -177.690 -1 -14.8100 -177.690 TC -14.8206 -177.691 1 11 209
1957053S11179 1957 17 SP MM NOT_NAMED 1957-02-25 06:00:00 TS -15.4980 181.502 main 188 140 O________OP___ jtwc_sh SH221957 -15.5000 -178.000 -1 -15.5000 182.000 TC -15.4880 -177.986 1 12 211
1957053S11179 1957 17 SP MM NOT_NAMED 1957-02-25 09:00:00 TS -15.9861 181.164 main 140 98 P________PP___ SH221957 -16.2150 -178.342 -1 -16.2150 -178.342 TC -16.2113 -178.338 1 12 215
1957053S11179 1957 17 SP MM NOT_NAMED 1957-02-25 12:00:00 TS -16.4438 180.811 main 98 63 O________OO___ jtwc_sh SH221957 -16.9000 -178.700 -1 -16.9000 181.300 TC -16.9000 -178.700 1 11 217
1957053S11179 1957 17 SP MM NOT_NAMED 1957-02-25 15:00:00 TS -16.8253 180.494 main 63 46 P________PP___ SH221957 -17.4374 -179.008 -1 -17.4374 -179.008 TC -17.4538 -179.032 1 10 220
1957053S11179 1957 17 SP MM NOT_NAMED 1957-02-25 18:00:00 TS -17.1808 180.170 main 54 49 O________OP___ jtwc_sh SH221957 -17.9000 -179.300 -1 -17.9000 180.700 TC -17.9551 -179.360 1 10 218
1957053S11179 1957 17 SP MM NOT_NAMED 1957-02-25 21:00:00 TS -17.6195 179.848 main 90 90 P________PP___ SH221957 -18.3800 -179.622 -1 -18.3800 -179.622 TC -18.4038 -179.657 1 11 214
1957053S11179 1957 17 SP MM NOT_NAMED 1957-02-26 00:00:00 TS -18.0694 179.551 main 95 71 O________OO___ jtwc_sh SH221957 -18.8000 -179.900 -1 -18.8000 180.100 TC -18.8000 -179.900 1 10 212
1957053S11179 1957 17 SP MM NOT_NAMED 1957-02-26 03:00:00 TS -18.4816 179.289 main 77 76 P________PP___ SH221957 -19.1224 179.912 -1 -19.1224 179.912 TC -19.1337 179.937 1 9 210
1957053S11179 1957 17 SP MM NOT_NAMED 1957-02-26 06:00:00 TS -18.8889 179.062 main 98 94 O________OP___ jtwc_sh SH221957 -19.4000 179.800 -1 -19.4000 179.800 TC -19.4221 179.831 1 9 209
1957053S11179 1957 17 SP MM NOT_NAMED 1957-02-26 09:00:00 TS -19.2803 178.830 main 128 128 P________PP___ SH221957 -19.6850 179.742 -1 -19.6850 179.742 TC -19.6995 179.760 1 9 208
1957053S11179 1957 17 SP MM NOT_NAMED 1957-02-26 12:00:00 TS -19.6743 178.610 main 162 162 O________OO___ jtwc_sh SH221957 -20.0000 179.700 -1 -20.0000 179.700 TC -20.0000 179.700 1 9 208
1957053S11179 1957 17 SP MM NOT_NAMED 1957-02-26 15:00:00 TS -20.0983 178.372 main 202 201 P________PP___ SH221957 -20.3850 179.600 -1 -20.3850 179.600 TC -20.3713 179.610 1 9 202
1957053S11179 1957 17 SP MM NOT_NAMED 1957-02-26 18:00:00 TS -20.5100 178.247 main 246 246 O________OP___ jtwc_sh SH221957 -20.8000 179.500 -1 -20.8000 179.500 TC -20.7700 179.528 1 7 0
1957053S11179 1957 17 SP MM NOT_NAMED 1957-02-26 21:00:00 TS -20.8346 178.390 main 280 280 P________PP___ SH221957 -21.2000 179.442 -1 -21.2000 179.442 TC -21.1838 179.457 1 7 149
1957053S11179 1957 17 SP MM NOT_NAMED 1957-02-27 00:00:00 TS -21.1408 178.660 main 317 317 O________OO___ jtwc_sh SH221957 -21.6000 179.400 -1 -21.6000 179.400 TC -21.6000 179.400 1 8 140
1957053S11179 1957 17 SP MM NOT_NAMED 1957-02-27 03:00:00 TS -21.4581 178.945 main 365 365 P________PP___ SH221957 -22.0000 179.343 -1 -22.0000 179.343 TC -21.9918 179.337 1 9 150
1957053S11179 1957 17 SP MM NOT_NAMED 1957-02-27 06:00:00 TS -21.8836 179.127 main 413 413 O________OP___ jtwc_sh SH221957 -22.4000 179.300 -1 -22.4000 179.300 TC -22.3849 179.291 1 11 177
1957053S11179 1957 17 SP MM NOT_NAMED 1957-02-27 09:00:00 TS -22.5311 179.022 main 477 477 P________PP___ SH221957 -22.7925 179.285 -1 -22.7925 179.285 TC -22.7856 179.274 1 14 189
1957053S11179 1957 17 SP MM NOT_NAMED 1957-02-27 12:00:00 TS -23.2240 178.900 main 552 552 O________OO___ jtwc_sh SH221957 -23.2000 179.300 -1 -23.2000 179.300 TC -23.2000 179.300 1 14 186
1957053S11179 1957 17 SP MM NOT_NAMED 1957-02-27 15:00:00 TS -23.8757 178.875 main 630 630 P________PP___ SH221957 -23.6425 179.320 -1 -23.6425 179.320 TC -23.6557 179.353 1 13 178
1957053S11179 1957 17 SP MM NOT_NAMED 1957-02-27 18:00:00 TS -24.4675 178.940 main 697 697 O________OP___ jtwc_sh SH221957 -24.1000 179.400 -1 -24.1000 179.400 TC -24.1222 179.453 1 11 168
1957053S11179 1957 17 SP MM NOT_NAMED 1957-02-27 21:00:00 TS -24.9261 179.113 main 743 743 P________PP___ SH221957 -24.5650 179.562 -1 -24.5650 179.562 TC -24.5775 179.601 1 10 155
1957053S11179 1957 17 SP MM NOT_NAMED 1957-02-28 00:00:00 TS -25.3252 179.386 main 792 792 O________OO___ jtwc_sh SH221957 -25.0000 179.800 -1 -25.0000 179.800 TC -25.0000 179.800 1 10 145
1957053S11179 1957 17 SP MM NOT_NAMED 1957-02-28 03:00:00 TS -25.7221 179.733 main 841 841 P________PP___ SH221957 -25.3725 -179.915 -1 -25.3725 -179.915 TC -25.3813 -179.959 1 11 137
1957053S11179 1957 17 SP MM NOT_NAMED 1957-02-28 06:00:00 TS -26.1042 180.189 main 895 895 O________OP___ jtwc_sh SH221957 -25.7000 -179.600 -1 -25.7000 180.400 TC -25.7250 -179.668 1 12 130
1957053S11179 1957 17 SP MM NOT_NAMED 1957-02-28 09:00:00 TS -26.4788 180.728 main 951 951 P________PP___ SH221957 -26.0149 -179.307 -1 -26.0149 -179.307 TC -26.0312 -179.343 1 12 124
1957053S11179 1957 17 SP MM NOT_NAMED 1957-02-28 12:00:00 TS -26.7715 181.313 main 1001 1001 O________OO___ jtwc_sh SH221957 -26.3000 -179.000 -1 -26.3000 181.000 TC -26.3000 -179.000 1 11 118
1957053S11179 1957 17 SP MM NOT_NAMED 1957-02-28 15:00:00 TS -27.0042 181.838 main 1040 1040 P________PP___ SH221957 -26.5725 -178.657 -1 -26.5725 -178.657 TC -26.5331 -178.652 1 10 116
1957053S11179 1957 17 SP MM NOT_NAMED 1957-02-28 18:00:00 TS -27.1845 182.274 main 1079 1051 O________OP___ jtwc_sh SH221957 -26.8000 -178.300 -1 -26.8000 181.700 TC -26.7380 -178.303 1 2 75
1957053S11179 1957 17 SP MM NOT_NAMED 1957-02-28 21:00:00 TS -26.9531 182.051 main 1051 1041 P________PP___ SH221957 -26.9676 -177.948 -1 -26.9676 -177.948 TC -26.9240 -177.952 1 1 54
1957053S11179 1957 17 SP MM NOT_NAMED 1957-03-01 00:00:00 TS -27.1000 182.400 main 1073 O________OO___ jtwc_sh SH221957 -27.1000 -177.600 -1 -27.1000 182.400 TC -27.1000 -177.600 1 7 115

Digital Typhoon Data and Search

About IBTrACS Database

This database is a web-friendly format of International Best Track Archive for Climate Stewardship (IBTrACS), a global best track data archive curated by NOAA dating back to 1842.

Updated: 2021-10-25